Time;durP1;ratioP1;P1;durP2;ratioP2;P2;SDS_P1;SDS_P2;PMS_P1;PMS_P2;Temp;Humidity;BMP_temperature;BMP_pressure;BME280_temperature;BME280_humidity;BME280_pressure;Samples;Min_cycle;Max_cycle;Signal;HPM_P1;HPM_P2
2021/12/22 00:02:13;;;;;;;5.30;4.50;;;16.70;52.50;;;;;;5051903;28;20183;-59
2021/12/22 00:04:44;;;;;;;4.97;4.43;;;16.60;52.40;;;;;;5052451;28;20676;-59
2021/12/22 00:07:13;;;;;;;5.07;4.53;;;16.60;52.40;;;;;;5052474;28;20229;-60
2021/12/22 00:09:39;;;;;;;4.68;4.28;;;16.60;52.40;;;;;;5051500;28;20646;-60
2021/12/22 00:12:05;;;;;;;5.15;4.35;;;16.60;52.40;;;;;;5052680;28;20217;-60
2021/12/22 00:14:30;;;;;;;5.07;4.68;;;16.60;52.40;;;;;;5052015;28;20257;-60
2021/12/22 00:16:58;;;;;;;4.72;4.30;;;16.60;52.40;;;;;;5051759;28;20203;-60
2021/12/22 00:19:24;;;;;;;5.18;4.78;;;16.60;52.40;;;;;;5051836;28;20541;-60
2021/12/22 00:21:49;;;;;;;4.50;4.10;;;16.50;52.30;;;;;;5052253;28;20167;-60
2021/12/22 00:24:15;;;;;;;4.72;4.32;;;16.50;52.30;;;;;;5051836;28;20256;-60
2021/12/22 00:26:40;;;;;;;4.95;4.50;;;16.50;52.30;;;;;;5051984;28;20183;-59
2021/12/22 00:29:08;;;;;;;5.70;5.20;;;16.50;52.30;;;;;;5051961;28;20531;-59
2021/12/22 00:31:56;;;;;;;5.03;4.63;;;16.50;52.30;;;;;;5051162;28;20182;-60
2021/12/22 00:34:24;;;;;;;5.00;4.60;;;16.50;52.30;;;;;;5051914;28;20214;-61
2021/12/22 00:36:49;;;;;;;5.35;4.95;;;16.40;52.30;;;;;;5052323;28;20197;-60
2021/12/22 00:39:15;;;;;;;4.80;4.22;;;16.40;52.20;;;;;;5051551;28;20178;-60
2021/12/22 00:41:40;;;;;;;5.38;4.65;;;16.40;52.20;;;;;;5051587;28;20171;-60
2021/12/22 00:44:06;;;;;;;6.53;4.97;;;16.30;52.20;;;;;;5051239;28;20567;-60
2021/12/22 00:46:31;;;;;;;5.18;4.78;;;16.30;52.20;;;;;;5051402;28;20638;-60
2021/12/22 00:48:57;;;;;;;7.32;4.80;;;16.30;52.10;;;;;;5051817;28;20629;-60
2021/12/22 00:51:22;;;;;;;5.20;4.70;;;16.30;52.00;;;;;;5051074;28;20178;-59
2021/12/22 00:53:48;;;;;;;5.22;4.72;;;16.30;52.20;;;;;;5051958;28;20249;-59
2021/12/22 00:56:14;;;;;;;5.13;4.72;;;16.30;52.00;;;;;;5051883;28;20259;-60
2021/12/22 00:58:39;;;;;;;6.00;5.40;;;16.30;52.10;;;;;;5049979;28;20186;-58
2021/12/22 01:01:05;;;;;;;5.78;5.28;;;16.20;52.00;;;;;;5051659;28;20175;-60
2021/12/22 01:03:30;;;;;;;5.22;4.75;;;16.20;52.10;;;;;;5051612;28;20167;-58
2021/12/22 01:05:56;;;;;;;5.35;4.90;;;16.20;52.10;;;;;;5051003;28;20175;-60
2021/12/22 01:08:21;;;;;;;5.93;5.32;;;16.20;52.00;;;;;;5051346;28;20626;-59
2021/12/22 01:10:47;;;;;;;6.25;5.10;;;16.20;51.90;;;;;;5051700;28;20338;-60
2021/12/22 01:13:13;;;;;;;5.35;4.85;;;16.20;51.90;;;;;;5050848;28;20266;-60
2021/12/22 01:15:39;;;;;;;5.70;5.10;;;16.20;51.90;;;;;;5051416;28;20217;-60
2021/12/22 01:18:16;;;;;;;5.72;5.07;;;16.10;51.80;;;;;;5051636;28;20167;-59
2021/12/22 01:21:12;;;;;;;5.75;5.25;;;16.10;51.80;;;;;;5050692;28;20179;-60
2021/12/22 01:23:50;;;;;;;5.60;5.10;;;16.10;51.80;;;;;;5051369;28;20193;-59
2021/12/22 01:26:16;;;;;;;5.47;4.97;;;16.10;51.80;;;;;;5050627;28;20175;-59
2021/12/22 01:28:43;;;;;;;6.53;5.20;;;16.10;51.80;;;;;;5051281;28;20266;-59
2021/12/22 01:31:14;;;;;;;5.53;5.03;;;16.00;51.70;;;;;;5051471;28;20262;-59
2021/12/22 01:33:39;;;;;;;6.00;5.40;;;16.00;52.40;;;;;;5050536;28;21092;-59
2021/12/22 01:36:05;;;;;;;5.55;5.00;;;16.00;51.80;;;;;;5051275;28;20614;-60
2021/12/22 01:38:31;;;;;;;5.55;5.05;;;16.00;51.60;;;;;;5050917;28;20660;-60
2021/12/22 01:40:56;;;;;;;5.45;4.95;;;16.00;51.70;;;;;;5050498;28;20278;-59
2021/12/22 01:43:22;;;;;;;5.85;5.32;;;16.00;51.80;;;;;;5051071;28;20199;-60
2021/12/22 01:51:05;;;;;;;6.00;5.40;;;15.90;51.70;;;;;;5051134;28;20253;-59
2021/12/22 01:53:55;;;;;;;5.97;5.38;;;15.90;51.60;;;;;;5050645;28;20207;-59
2021/12/22 01:56:23;;;;;;;5.55;5.05;;;15.90;51.60;;;;;;5046013;28;20187;-60
2021/12/22 01:58:51;;;;;;;5.80;5.28;;;15.90;51.60;;;;;;5051194;28;20167;-60
2021/12/22 02:01:16;;;;;;;5.60;5.10;;;15.90;51.60;;;;;;5051002;28;20180;-60
2021/12/22 02:03:43;;;;;;;5.25;4.78;;;15.90;51.60;;;;;;5050021;28;20175;-58
2021/12/22 02:06:09;;;;;;;5.50;5.00;;;15.90;51.50;;;;;;5051212;28;20180;-58
2021/12/22 02:08:37;;;;;;;5.82;5.30;;;15.80;51.50;;;;;;5050187;28;20253;-60
2021/12/22 02:11:03;;;;;;;5.38;4.93;;;15.80;51.60;;;;;;5054624;28;20175;-60
2021/12/22 02:13:34;;;;;;;6.07;5.57;;;15.80;51.60;;;;;;5054325;28;20198;-59
2021/12/22 02:16:06;;;;;;;6.20;5.55;;;15.80;51.50;;;;;;5053980;28;20258;-61
2021/12/22 02:18:36;;;;;;;6.47;5.47;;;15.80;51.40;;;;;;5054199;28;20630;-60
2021/12/22 02:21:03;;;;;;;6.13;5.53;;;15.80;51.50;;;;;;5054415;28;20183;-60
2021/12/22 02:23:28;;;;;;;5.75;5.25;;;15.70;51.50;;;;;;5053343;28;20710;-60
2021/12/22 02:25:59;;;;;;;6.28;5.32;;;15.80;51.40;;;;;;5054671;28;20183;-59
2021/12/22 02:28:29;;;;;;;6.05;5.45;;;15.70;51.40;;;;;;5054165;28;20179;-59
2021/12/22 02:30:58;;;;;;;6.00;5.40;;;15.70;51.40;;;;;;5053955;28;20167;-59
2021/12/22 02:33:25;;;;;;;5.30;4.88;;;15.70;51.40;;;;;;5054152;28;20227;-60
2021/12/22 02:38:34;;;;;;;6.57;5.97;;;15.70;51.40;;;;;;5053220;28;20553;-60
2021/12/22 02:41:00;;;;;;;5.90;5.30;;;15.70;51.30;;;;;;5054079;28;20240;-59
2021/12/22 02:43:31;;;;;;;5.45;4.95;;;15.70;51.30;;;;;;5054028;28;20183;-60
2021/12/22 02:45:56;;;;;;;5.70;5.20;;;15.60;51.20;;;;;;5053869;28;20183;-60
2021/12/22 02:48:23;;;;;;;5.95;5.35;;;15.60;51.30;;;;;;5053518;28;20595;-59
2021/12/22 02:50:49;;;;;;;5.50;5.00;;;15.60;51.20;;;;;;5053396;28;20258;-59
2021/12/22 02:53:16;;;;;;;5.82;5.22;;;15.60;51.20;;;;;;5053826;28;20314;-59
2021/12/22 03:05:59;;;;;;;5.88;5.35;;;15.50;51.10;;;;;;5053154;28;20178;-59
2021/12/22 03:08:25;;;;;;;5.78;5.28;;;15.50;51.10;;;;;;5053203;28;20186;-59
2021/12/22 03:10:55;;;;;;;5.97;5.47;;;15.50;51.10;;;;;;5053913;28;20172;-59
2021/12/22 03:13:21;;;;;;;6.32;5.78;;;15.50;51.10;;;;;;5052662;28;20189;-59
2021/12/22 03:15:47;;;;;;;5.60;5.10;;;15.50;51.10;;;;;;5053606;28;20171;-59
2021/12/22 03:18:12;;;;;;;5.88;5.38;;;15.50;51.10;;;;;;5053704;28;20654;-59
2021/12/22 03:20:38;;;;;;;8.52;5.93;;;15.50;51.10;;;;;;5050507;28;20559;-60
2021/12/22 03:23:04;;;;;;;6.10;5.55;;;15.40;51.00;;;;;;5053131;28;20190;-60
2021/12/22 03:25:30;;;;;;;9.35;6.25;;;15.40;51.00;;;;;;5053336;28;20171;-59
2021/12/22 03:28:01;;;;;;;5.97;5.40;;;15.40;51.00;;;;;;5052636;28;20171;-60
2021/12/22 03:30:26;;;;;;;5.43;4.90;;;15.40;51.00;;;;;;5053040;28;20597;-60
2021/12/22 03:32:52;;;;;;;6.30;5.70;;;15.40;51.00;;;;;;5052492;28;20207;-58
2021/12/22 03:35:20;;;;;;;6.53;5.80;;;15.40;51.00;;;;;;5052955;28;20260;-59
2021/12/22 03:37:48;;;;;;;5.70;5.20;;;15.40;51.00;;;;;;5053241;28;20233;-60
2021/12/22 03:40:14;;;;;;;6.05;5.45;;;15.40;51.00;;;;;;5052583;28;20182;-59
2021/12/22 03:42:39;;;;;;;5.93;5.32;;;15.30;51.00;;;;;;5052838;28;20171;-59
2021/12/22 03:45:05;;;;;;;6.35;5.75;;;15.30;51.00;;;;;;5052848;28;20171;-59
2021/12/22 03:47:31;;;;;;;6.15;5.55;;;15.30;51.00;;;;;;5051801;28;20238;-58
2021/12/22 03:49:56;;;;;;;6.22;5.45;;;15.30;51.00;;;;;;5052934;28;20180;-59
2021/12/22 03:52:22;;;;;;;6.90;6.13;;;15.30;50.90;;;;;;5052719;28;20172;-60
2021/12/22 03:54:47;;;;;;;6.63;6.03;;;15.30;50.90;;;;;;5052077;28;20233;-60
2021/12/22 03:57:13;;;;;;;6.40;5.80;;;15.30;50.80;;;;;;5052756;28;20602;-60
2021/12/22 03:59:38;;;;;;;6.72;5.68;;;15.30;50.80;;;;;;5052351;28;20187;-59
2021/12/22 04:02:04;;;;;;;6.22;5.57;;;15.20;50.80;;;;;;5051949;28;20168;-60
2021/12/22 04:04:30;;;;;;;6.65;5.97;;;15.20;50.80;;;;;;5052266;28;20182;-60
2021/12/22 04:06:55;;;;;;;7.45;6.72;;;15.20;50.80;;;;;;5052551;28;20616;-60
2021/12/22 04:09:26;;;;;;;6.47;5.88;;;15.20;50.80;;;;;;5051721;28;20210;-60
2021/12/22 04:11:52;;;;;;;6.50;5.82;;;15.20;50.80;;;;;;5052652;28;20199;-60
2021/12/22 04:14:17;;;;;;;6.28;5.55;;;15.20;50.80;;;;;;5052360;28;20345;-60
2021/12/22 04:16:43;;;;;;;6.55;5.80;;;15.20;50.70;;;;;;5051395;28;20183;-59
2021/12/22 04:19:08;;;;;;;6.70;6.10;;;15.10;50.70;;;;;;5052497;28;20187;-61
2021/12/22 04:21:34;;;;;;;6.50;5.90;;;15.20;50.80;;;;;;5052250;28;20163;-60
2021/12/22 04:24:01;;;;;;;6.65;6.05;;;15.10;50.70;;;;;;5051595;28;20193;-60
2021/12/22 04:26:27;;;;;;;6.95;6.32;;;15.10;50.70;;;;;;5052095;28;20186;-59
2021/12/22 04:28:53;;;;;;;6.63;6.03;;;15.10;50.80;;;;;;5052199;28;20489;-60
2021/12/22 04:31:19;;;;;;;7.28;6.45;;;15.10;50.70;;;;;;5051215;28;20174;-60
2021/12/22 04:33:44;;;;;;;5.90;5.40;;;15.10;50.70;;;;;;5051939;28;20207;-59
2021/12/22 04:36:10;;;;;;;6.80;6.20;;;15.10;50.70;;;;;;5051575;28;20171;-60
2021/12/22 04:38:35;;;;;;;6.68;5.97;;;15.10;50.70;;;;;;5051925;28;20167;-59
2021/12/22 04:41:01;;;;;;;6.90;6.28;;;15.10;50.80;;;;;;5052318;28;20174;-59
2021/12/22 04:43:27;;;;;;;5.85;5.35;;;15.00;50.70;;;;;;5050985;28;20179;-59
2021/12/22 04:45:53;;;;;;;6.30;5.80;;;15.00;51.20;;;;;;5051885;28;20203;-59
2021/12/22 04:48:18;;;;;;;6.47;5.88;;;15.00;50.70;;;;;;5051562;28;20255;-60
2021/12/22 04:50:44;;;;;;;6.15;5.57;;;15.00;50.70;;;;;;5051005;28;20175;-59
2021/12/22 04:53:40;;;;;;;7.18;6.30;;;15.00;50.60;;;;;;5051650;28;20205;-59
2021/12/22 04:55:55;;;;;;;6.30;5.75;;;15.00;50.60;;;;;;5051666;28;20222;-60
2021/12/22 04:58:21;;;;;;;7.68;6.50;;;15.00;50.70;;;;;;5050761;28;20207;-61
2021/12/22 05:00:46;;;;;;;7.35;6.03;;;15.00;50.60;;;;;;5051501;28;20588;-61
2021/12/22 05:03:12;;;;;;;6.07;5.47;;;15.00;50.60;;;;;;5051781;28;20625;-60
2021/12/22 05:05:37;;;;;;;6.47;5.88;;;15.00;50.60;;;;;;5050673;28;20182;-60
2021/12/22 05:08:03;;;;;;;6.97;6.28;;;14.90;50.60;;;;;;5051769;28;20163;-60
2021/12/22 05:10:28;;;;;;;7.25;6.40;;;14.90;50.60;;;;;;5051290;28;20638;-60
2021/12/22 05:12:54;;;;;;;6.70;6.10;;;14.90;50.70;;;;;;5050943;28;20202;-60
2021/12/22 05:15:22;;;;;;;6.22;5.63;;;14.90;50.60;;;;;;5051085;28;20210;-60
2021/12/22 05:20:14;;;;;;;6.50;5.90;;;14.90;50.50;;;;;;5051017;28;20167;-60
2021/12/22 05:22:40;;;;;;;6.80;6.10;;;14.90;50.60;;;;;;5051396;28;20225;-60
2021/12/22 05:25:07;;;;;;;6.60;6.00;;;14.80;50.50;;;;;;5051584;28;20202;-60
2021/12/22 05:27:33;;;;;;;7.25;6.15;;;14.80;50.50;;;;;;5050378;28;20551;-60
2021/12/22 05:29:58;;;;;;;6.80;5.93;;;14.80;50.50;;;;;;5051482;28;20217;-59
2021/12/22 05:32:30;;;;;;;6.88;5.80;;;14.80;50.50;;;;;;5050665;28;20234;-60
2021/12/22 05:34:55;;;;;;;7.15;6.45;;;14.80;50.50;;;;;;5051668;28;20628;-59
2021/12/22 05:37:21;;;;;;;6.75;6.15;;;14.80;50.50;;;;;;5051230;28;20702;-59
2021/12/22 05:39:46;;;;;;;7.40;6.70;;;14.70;50.50;;;;;;5050613;28;20179;-59
2021/12/22 05:42:12;;;;;;;6.88;6.10;;;14.80;50.50;;;;;;5051259;28;20183;-59
2021/12/22 05:44:37;;;;;;;6.90;6.30;;;14.80;50.50;;;;;;5052363;28;20606;-58
2021/12/22 05:47:03;;;;;;;7.30;6.57;;;14.70;50.40;;;;;;5054469;28;20591;-58
2021/12/22 05:49:29;;;;;;;6.63;6.03;;;14.70;50.40;;;;;;5055052;28;20654;-59
2021/12/22 05:51:54;;;;;;;6.63;6.03;;;14.70;50.40;;;;;;5055573;28;20515;-59
2021/12/22 05:54:20;;;;;;;7.63;6.93;;;14.70;50.40;;;;;;5054002;28;20364;-60
2021/12/22 05:56:45;;;;;;;7.00;6.32;;;14.70;50.50;;;;;;5055143;28;20248;-59
2021/12/22 05:59:11;;;;;;;7.85;6.45;;;14.70;50.50;;;;;;5055011;28;20642;-59
2021/12/22 06:01:37;;;;;;;6.72;6.13;;;14.70;50.60;;;;;;5053928;28;20175;-59
2021/12/22 06:04:03;;;;;;;6.68;6.05;;;14.70;50.50;;;;;;5055132;28;20186;-59
2021/12/22 06:06:29;;;;;;;7.10;6.40;;;14.70;50.50;;;;;;5054754;28;20340;-60
2021/12/22 06:08:54;;;;;;;7.53;6.07;;;14.80;50.70;;;;;;5054238;28;20483;-59
2021/12/22 06:11:20;;;;;;;6.82;6.13;;;14.90;50.80;;;;;;5054614;28;20167;-60
2021/12/22 06:13:45;;;;;;;6.15;5.55;;;15.00;50.80;;;;;;5054603;28;20214;-59
2021/12/22 06:16:11;;;;;;;6.35;5.75;;;15.20;50.80;;;;;;5054049;28;20207;-59
2021/12/22 06:18:42;;;;;;;7.53;6.18;;;15.40;51.10;;;;;;5054597;28;20186;-59
2021/12/22 06:21:08;;;;;;;6.47;5.63;;;15.60;50.30;;;;;;5054688;28;20179;-60
2021/12/22 06:23:33;;;;;;;6.47;5.88;;;15.90;49.90;;;;;;5053577;28;20175;-60
2021/12/22 06:25:59;;;;;;;6.47;5.32;;;16.10;49.40;;;;;;5054454;28;20245;-59
2021/12/22 06:28:24;;;;;;;7.78;5.88;;;16.40;49.10;;;;;;5054053;28;20179;-60
2021/12/22 06:30:50;;;;;;;6.25;5.65;;;16.50;48.80;;;;;;5053722;28;20179;-58
2021/12/22 06:33:15;;;;;;;7.18;6.15;;;16.60;48.60;;;;;;5054496;28;20290;-59
2021/12/22 06:35:41;;;;;;;6.25;5.65;;;16.70;48.60;;;;;;5053383;28;20187;-60
2021/12/22 06:38:07;;;;;;;6.25;5.65;;;16.70;48.60;;;;;;5054389;28;20171;-60
2021/12/22 06:40:32;;;;;;;6.65;5.95;;;16.80;48.50;;;;;;5052695;28;20179;-60
2021/12/22 06:42:58;;;;;;;6.32;5.70;;;16.80;48.50;;;;;;5053536;28;20179;-59
2021/12/22 06:45:24;;;;;;;6.82;6.10;;;16.80;48.60;;;;;;5053658;28;20544;-59
2021/12/22 06:47:50;;;;;;;6.85;5.90;;;16.80;48.60;;;;;;5054054;28;20560;-58
2021/12/22 06:50:15;;;;;;;6.45;5.82;;;16.90;48.60;;;;;;5053374;28;20171;-59
2021/12/22 06:52:41;;;;;;;5.70;5.10;;;16.90;48.50;;;;;;5053698;28;20182;-59
2021/12/22 06:55:07;;;;;;;6.55;5.88;;;16.90;48.60;;;;;;5053748;28;20308;-59
2021/12/22 06:57:33;;;;;;;6.97;6.28;;;16.90;48.50;;;;;;5051868;28;20637;-60
2021/12/22 07:00:00;;;;;;;6.95;6.20;;;16.80;48.60;;;;;;5054013;28;20661;-60
2021/12/22 07:02:26;;;;;;;6.10;5.50;;;16.90;48.60;;;;;;5053440;28;20717;-60
2021/12/22 07:04:52;;;;;;;7.60;6.22;;;16.90;48.70;;;;;;5053154;28;20558;-58
2021/12/22 07:07:18;;;;;;;7.05;6.35;;;16.90;48.60;;;;;;5053877;28;20638;-59
2021/12/22 07:09:43;;;;;;;6.82;6.13;;;16.90;48.70;;;;;;5053521;28;20179;-59
2021/12/22 07:12:10;;;;;;;7.50;6.32;;;16.90;48.80;;;;;;5052908;28;20183;-59
2021/12/22 07:14:38;;;;;;;7.07;6.38;;;16.90;48.70;;;;;;5053565;28;20272;-59
2021/12/22 07:17:04;;;;;;;6.82;6.15;;;17.00;48.70;;;;;;5053628;28;20704;-59
2021/12/22 07:19:29;;;;;;;6.03;5.43;;;17.10;48.60;;;;;;5052583;28;20342;-59
2021/12/22 07:21:55;;;;;;;6.93;5.78;;;17.10;48.50;;;;;;5053622;28;20179;-59
2021/12/22 07:24:21;;;;;;;7.47;6.60;;;17.20;48.50;;;;;;5053148;28;20244;-59
2021/12/22 07:26:46;;;;;;;6.40;5.70;;;17.20;48.50;;;;;;5052717;28;20179;-60
2021/12/22 07:29:12;;;;;;;6.75;5.88;;;17.20;48.30;;;;;;5053271;28;20174;-58
2021/12/22 07:31:38;;;;;;;6.35;5.70;;;17.30;48.30;;;;;;5053215;28;20282;-59
2021/12/22 07:34:22;;;;;;;7.05;6.35;;;17.30;48.30;;;;;;5052445;28;20219;-58
2021/12/22 07:37:09;;;;;;;7.28;6.07;;;17.50;48.20;;;;;;5053210;28;20255;-58
2021/12/22 07:39:34;;;;;;;6.47;5.72;;;17.60;48.00;;;;;;5052318;28;20186;-58
2021/12/22 07:42:00;;;;;;;6.10;5.50;;;17.70;47.80;;;;;;5053207;28;20274;-58
2021/12/22 07:44:25;;;;;;;7.40;6.43;;;17.80;47.80;;;;;;5052761;28;20175;-58
2021/12/22 07:46:51;;;;;;;6.72;6.13;;;18.00;47.40;;;;;;5052139;28;20175;-57
2021/12/22 07:49:16;;;;;;;7.65;6.55;;;18.10;47.10;;;;;;5053019;28;20183;-58
2021/12/22 07:51:42;;;;;;;7.88;6.78;;;18.20;47.00;;;;;;5052450;28;20619;-59
2021/12/22 07:54:07;;;;;;;7.18;6.10;;;18.30;47.00;;;;;;5052322;28;20300;-59
2021/12/22 07:56:33;;;;;;;6.70;6.03;;;18.30;47.00;;;;;;5052405;28;20635;-60
2021/12/22 07:58:58;;;;;;;6.85;6.15;;;18.30;46.90;;;;;;5052901;28;20183;-59
2021/12/22 08:01:24;;;;;;;7.50;5.97;;;18.40;46.90;;;;;;5051610;28;20163;-60
2021/12/22 08:03:52;;;;;;;6.82;5.97;;;18.40;47.00;;;;;;5052691;28;20179;-60
2021/12/22 08:06:17;;;;;;;6.80;6.10;;;18.40;46.80;;;;;;5052407;28;20221;-66
2021/12/22 08:08:43;;;;;;;7.60;6.55;;;18.40;47.10;;;;;;5051369;28;20172;-65
2021/12/22 08:11:09;;;;;;;7.00;6.25;;;18.50;46.90;;;;;;5052416;28;20187;-66
2021/12/22 08:13:35;;;;;;;6.82;6.13;;;18.50;47.00;;;;;;5052107;28;20264;-65
2021/12/22 08:16:00;;;;;;;6.47;5.25;;;18.40;47.10;;;;;;5051819;28;20182;-65
2021/12/22 08:18:26;;;;;;;7.28;6.32;;;18.40;47.30;;;;;;5052003;28;20176;-65
2021/12/22 08:20:52;;;;;;;6.10;4.97;;;18.40;47.30;;;;;;5052265;28;20227;-65
2021/12/22 08:23:18;;;;;;;7.22;6.05;;;18.50;47.30;;;;;;5051854;28;20232;-63
2021/12/22 08:25:45;;;;;;;6.05;5.45;;;18.60;47.10;;;;;;5051976;28;20619;-64
2021/12/22 08:28:10;;;;;;;6.35;5.75;;;18.70;46.90;;;;;;5051437;28;20190;-64
2021/12/22 08:30:37;;;;;;;6.50;5.88;;;18.80;47.00;;;;;;5051597;28;20175;-65
2021/12/22 08:33:09;;;;;;;7.32;5.90;;;18.80;46.90;;;;;;5052028;28;20175;-66
2021/12/22 08:38:50;;;;;;;6.53;5.70;;;18.80;47.00;;;;;;5051043;28;20251;-66
2021/12/22 08:41:04;;;;;;;7.00;6.30;;;18.90;47.00;;;;;;5050542;28;20194;-65
2021/12/22 08:43:30;;;;;;;8.07;6.47;;;18.90;47.00;;;;;;5049209;28;20626;-70
2021/12/22 08:45:55;;;;;;;7.28;5.82;;;18.90;47.10;;;;;;5051610;28;20174;-64
2021/12/22 08:48:21;;;;;;;7.43;6.72;;;18.80;47.40;;;;;;5051274;28;20222;-64
2021/12/22 08:50:46;;;;;;;8.10;6.15;;;18.90;47.50;;;;;;5051037;28;20221;-64
2021/12/22 08:53:12;;;;;;;7.07;6.28;;;19.00;47.60;;;;;;5051562;28;20622;-64
2021/12/22 08:55:37;;;;;;;6.22;5.38;;;19.10;47.60;;;;;;5051009;28;20708;-64
2021/12/22 08:58:03;;;;;;;6.38;5.63;;;19.20;47.40;;;;;;5050658;28;20262;-66
2021/12/22 09:00:31;;;;;;;7.63;5.80;;;19.20;47.50;;;;;;5050807;28;20218;-66
2021/12/22 09:02:57;;;;;;;9.07;5.90;;;19.10;47.70;;;;;;5051777;28;20175;-62
2021/12/22 09:05:22;;;;;;;8.55;6.22;;;19.10;47.90;;;;;;5050870;28;20248;-63
2021/12/22 09:07:48;;;;;;;7.75;6.38;;;18.80;48.00;;;;;;5051736;28;20484;-61
2021/12/22 09:10:13;;;;;;;8.00;6.78;;;18.70;48.10;;;;;;5051548;28;20195;-65
2021/12/22 09:12:39;;;;;;;10.32;6.93;;;18.80;47.60;;;;;;5050444;28;20713;-63
2021/12/22 09:15:05;;;;;;;10.85;6.43;;;18.90;47.40;;;;;;5051357;28;20246;-63
2021/12/22 09:17:30;;;;;;;9.13;6.88;;;19.00;47.30;;;;;;5050432;28;20171;-63
2021/12/22 09:19:56;;;;;;;11.75;6.28;;;19.10;47.40;;;;;;5050655;28;20179;-62
2021/12/22 09:22:22;;;;;;;7.00;5.72;;;19.20;47.50;;;;;;5051000;28;20257;-62
2021/12/22 09:24:47;;;;;;;8.90;6.40;;;19.20;47.50;;;;;;5050668;28;20550;-62
2021/12/22 09:27:14;;;;;;;6.68;5.97;;;19.30;47.60;;;;;;5051323;28;20175;-64
2021/12/22 09:29:39;;;;;;;8.50;6.00;;;19.30;47.60;;;;;;5051040;28;20178;-64
2021/12/22 09:32:05;;;;;;;8.43;6.32;;;19.30;47.80;;;;;;5050806;28;20190;-64
2021/12/22 09:34:31;;;;;;;10.77;6.15;;;19.20;48.10;;;;;;5051005;28;20222;-64
2021/12/22 09:36:56;;;;;;;7.70;5.97;;;19.00;48.40;;;;;;5051432;28;20175;-64
2021/12/22 09:39:22;;;;;;;7.00;5.97;;;18.90;48.80;;;;;;5050225;28;20262;-63
2021/12/22 09:41:48;;;;;;;7.13;6.40;;;18.70;49.00;;;;;;5051285;28;20224;-63
2021/12/22 09:44:13;;;;;;;8.20;6.05;;;18.70;49.30;;;;;;5050962;28;20197;-63
2021/12/22 09:46:40;;;;;;;6.53;5.70;;;18.60;49.50;;;;;;5050386;28;20179;-63
2021/12/22 09:49:19;;;;;;;7.18;5.93;;;18.50;49.70;;;;;;5050920;28;20226;-63
2021/12/22 09:54:29;;;;;;;6.35;5.75;;;18.20;50.30;;;;;;5050068;28;20280;-64
2021/12/22 09:56:55;;;;;;;6.22;5.63;;;18.10;50.50;;;;;;5049942;28;20634;-64
2021/12/22 09:59:20;;;;;;;7.97;6.10;;;18.10;50.50;;;;;;5050882;28;20171;-64
2021/12/22 10:01:46;;;;;;;13.15;6.50;;;18.10;50.60;;;;;;5049306;28;20182;-65
2021/12/22 10:04:16;;;;;;;6.32;5.32;;;18.10;50.70;;;;;;5051367;28;20179;-61
2021/12/22 10:06:42;;;;;;;7.85;6.18;;;18.10;50.60;;;;;;5048832;28;20176;-63
2021/12/22 10:09:07;;;;;;;8.60;6.13;;;18.20;50.70;;;;;;5050911;28;20186;-61
2021/12/22 10:11:34;;;;;;;9.27;6.20;;;18.20;50.60;;;;;;5050764;28;20228;-62
2021/12/22 10:14:00;;;;;;;7.65;6.15;;;18.20;50.60;;;;;;5050141;28;20857;-62
2021/12/22 10:16:27;;;;;;;7.20;5.10;;;18.20;50.70;;;;;;5050635;28;20168;-61
2021/12/22 10:19:07;;;;;;;6.65;5.35;;;18.30;50.60;;;;;;5050773;28;20207;-63
2021/12/22 10:21:33;;;;;;;7.05;5.55;;;18.30;50.60;;;;;;5049857;28;20202;-61
2021/12/22 10:24:01;;;;;;;21.20;6.10;;;18.40;50.50;;;;;;5050949;28;20171;-61
2021/12/22 10:26:27;;;;;;;6.35;5.72;;;18.40;50.50;;;;;;5050626;28;20254;-60
2021/12/22 10:28:53;;;;;;;6.03;5.40;;;18.50;50.50;;;;;;5049461;28;20634;-62
2021/12/22 10:31:23;;;;;;;7.90;6.00;;;18.50;50.50;;;;;;5052629;28;20195;-62
2021/12/22 10:33:49;;;;;;;6.68;5.07;;;18.50;50.50;;;;;;5053960;28;20665;-63
2021/12/22 10:36:21;;;;;;;7.20;5.57;;;18.60;50.50;;;;;;5053052;28;20210;-63
2021/12/22 10:38:54;;;;;;;6.95;5.35;;;18.60;50.50;;;;;;5054015;28;20179;-63
2021/12/22 10:41:20;;;;;;;6.38;4.93;;;18.60;50.50;;;;;;5051785;28;20555;-62
2021/12/22 10:43:48;;;;;;;7.32;5.32;;;18.60;50.40;;;;;;5053286;28;20167;-62
2021/12/22 10:46:26;;;;;;;6.20;5.00;;;18.60;50.50;;;;;;5053748;28;20638;-62
2021/12/22 10:49:14;;;;;;;5.45;4.95;;;18.60;50.40;;;;;;5052654;28;20576;-62
2021/12/22 10:51:42;;;;;;;5.53;4.70;;;18.70;50.40;;;;;;5051960;28;20179;-63
2021/12/22 10:54:10;;;;;;;5.95;5.07;;;18.70;50.40;;;;;;5053727;28;20206;-62
2021/12/22 10:56:36;;;;;;;5.70;5.05;;;18.70;50.50;;;;;;5049799;28;20274;-62
2021/12/22 10:59:13;;;;;;;6.50;5.15;;;18.70;50.50;;;;;;5052462;28;20720;-64
2021/12/22 11:01:57;;;;;;;9.13;4.90;;;18.80;50.60;;;;;;5053729;28;20591;-65
2021/12/22 11:04:27;;;;;;;5.47;4.88;;;18.70;50.50;;;;;;5052954;28;20175;-67
2021/12/22 11:06:54;;;;;;;9.57;5.47;;;18.70;50.30;;;;;;5053954;28;20175;-68
2021/12/22 11:09:22;;;;;;;7.15;4.78;;;18.70;50.40;;;;;;5053426;28;20171;-64
2021/12/22 11:11:53;;;;;;;7.05;5.35;;;18.80;50.50;;;;;;5052983;28;20183;-64
2021/12/22 11:14:23;;;;;;;7.93;5.38;;;18.80;50.40;;;;;;5051740;28;20241;-64
2021/12/22 11:17:06;;;;;;;9.43;5.05;;;18.70;50.60;;;;;;5053654;28;20250;-63
2021/12/22 11:19:46;;;;;;;7.88;4.88;;;18.60;50.70;;;;;;5053135;28;20254;-66
2021/12/22 11:22:16;;;;;;;6.32;5.43;;;18.50;50.90;;;;;;5053529;28;20606;-66
2021/12/22 11:24:44;;;;;;;6.35;5.03;;;18.40;51.10;;;;;;5052708;28;20217;-66
2021/12/22 11:27:10;;;;;;;4.63;4.13;;;18.40;51.20;;;;;;5053715;28;20209;-65
2021/12/22 11:29:38;;;;;;;6.38;4.43;;;18.40;51.30;;;;;;5053313;28;20179;-66
2021/12/22 11:32:05;;;;;;;5.95;4.70;;;18.40;51.40;;;;;;5052647;28;20188;-66
2021/12/22 11:34:30;;;;;;;6.38;4.85;;;18.30;51.40;;;;;;5052918;28;20577;-67
2021/12/22 11:36:56;;;;;;;4.80;4.30;;;18.40;51.50;;;;;;5053781;28;20642;-67
2021/12/22 11:39:22;;;;;;;5.50;4.95;;;18.40;51.50;;;;;;5052618;28;20218;-66
2021/12/22 11:41:56;;;;;;;5.85;4.35;;;18.40;51.50;;;;;;5052783;28;20637;-65
2021/12/22 11:44:23;;;;;;;7.05;4.80;;;18.40;51.50;;;;;;5053179;28;20238;-65
2021/12/22 11:46:49;;;;;;;4.93;4.20;;;18.50;51.40;;;;;;5052282;28;20189;-67
2021/12/22 11:49:18;;;;;;;8.35;4.57;;;18.50;51.30;;;;;;5051832;28;20187;-68
2021/12/22 11:51:44;;;;;;;4.85;4.45;;;18.50;51.60;;;;;;5051515;28;20751;-63
2021/12/22 11:54:09;;;;;;;5.10;4.60;;;18.40;51.50;;;;;;5052168;28;20238;-64
2021/12/22 11:56:36;;;;;;;5.05;4.35;;;18.40;51.70;;;;;;5052310;28;20163;-64
2021/12/22 11:59:02;;;;;;;5.65;4.18;;;18.30;51.80;;;;;;5052775;28;20206;-64
2021/12/22 12:01:28;;;;;;;4.57;4.18;;;18.20;52.00;;;;;;5051909;28;20181;-63
2021/12/22 12:04:10;;;;;;;5.18;4.30;;;18.20;51.90;;;;;;5051220;28;20210;-64
2021/12/22 12:06:51;;;;;;;6.40;4.47;;;18.20;52.10;;;;;;5051765;28;20175;-66
2021/12/22 12:09:22;;;;;;;4.45;4.05;;;18.20;52.00;;;;;;5052595;28;20179;-65
2021/12/22 12:23:29;;;;;;;5.40;4.72;;;18.20;51.10;;;;;;5052374;28;20186;-65
2021/12/22 12:25:55;;;;;;;6.10;4.80;;;18.10;51.30;;;;;;5052363;28;20194;-65
2021/12/22 12:28:22;;;;;;;7.97;4.95;;;18.10;51.50;;;;;;5050300;28;20217;-65
2021/12/22 12:30:57;;;;;;;6.28;4.68;;;18.00;51.60;;;;;;5052312;28;20185;-65
2021/12/22 12:33:29;;;;;;;6.20;4.18;;;18.00;51.70;;;;;;5052156;28;20187;-66
2021/12/22 12:35:58;;;;;;;5.60;4.70;;;18.10;51.90;;;;;;5051618;28;20187;-67
2021/12/22 12:38:30;;;;;;;5.18;4.68;;;18.10;51.90;;;;;;5051950;28;20167;-67
2021/12/22 12:41:00;;;;;;;5.75;4.60;;;18.10;51.90;;;;;;5052169;28;20182;-67
2021/12/22 12:43:44;;;;;;;5.72;4.18;;;18.20;51.90;;;;;;5051081;28;20713;-66
2021/12/22 12:46:25;;;;;;;5.97;4.40;;;18.20;51.80;;;;;;5052073;28;20672;-65
2021/12/22 12:48:50;;;;;;;6.22;4.97;;;18.10;51.50;;;;;;5051236;28;20238;-63
2021/12/22 12:51:19;;;;;;;4.82;4.22;;;18.00;51.40;;;;;;5051678;28;20179;-63
2021/12/22 12:53:47;;;;;;;5.03;4.45;;;17.90;51.30;;;;;;5051085;28;20228;-63
2021/12/22 12:56:12;;;;;;;4.38;3.80;;;17.80;51.20;;;;;;5051221;28;20207;-63
2021/12/22 12:59:17;;;;;;;4.90;4.18;;;17.80;51.20;;;;;;5051832;28;20175;-64
2021/12/22 13:01:45;;;;;;;4.70;4.05;;;17.80;51.20;;;;;;5029514;28;20172;-64
2021/12/22 13:04:20;;;;;;;5.40;4.57;;;17.80;51.10;;;;;;5047509;28;20194;-65
2021/12/22 13:07:11;;;;;;;5.03;4.32;;;17.80;51.10;;;;;;5051953;28;20178;-64
2021/12/22 13:09:59;;;;;;;4.40;4.00;;;17.80;51.00;;;;;;5050348;28;20244;-63
2021/12/22 13:17:52;;;;;;;5.07;4.45;;;17.80;50.60;;;;;;5050976;28;20205;-63
2021/12/22 13:20:20;;;;;;;4.47;3.80;;;17.80;50.60;;;;;;5051737;28;20361;-63
2021/12/22 13:22:48;;;;;;;4.70;4.10;;;17.70;50.70;;;;;;5051553;28;20181;-63
2021/12/22 13:25:18;;;;;;;5.65;3.80;;;17.70;50.80;;;;;;5051065;28;20203;-63
2021/12/22 13:28:05;;;;;;;5.00;4.20;;;17.60;50.70;;;;;;5051400;28;20646;-63
2021/12/22 13:30:39;;;;;;;4.53;4.13;;;17.60;50.80;;;;;;5051550;28;20171;-63
2021/12/22 13:33:12;;;;;;;5.97;4.20;;;17.60;50.80;;;;;;5051578;28;20203;-63